DCA weather

Ronald Reagan Washington National Airport
Washington, District of Columbia, United States

Public forecast

Using degrees Fahrenheit for public forecast. Weather courtesy of forecast.io.

METAR (pilot weather report)

Retrieved 2017/03/29 08:52 UTC (21 minutes ago):

KDCA 290852Z 35008KT 10SM BKN030 OVC038 15/12 A3000

TAF (pilot weather forecast)

Retrieved 2017/03/29 06:27 UTC (3 hours ago):

TAF KDCA 290522Z 2906/3006 34006KT P6SM VCSH BKN030 FM290900 35007G14KT P6SM BKN035 FM291300 35008G15KT P6SM SCT050 FM300000 03007KT P6SM FEW040